Airfield :
LOGIN :

Register | Disclaimer

   EN    FR    IT 

 










Legend :    VFR   Marginal VFR   IFR   Intensive IFR   Very Intensive IFR
Visi :
Ceiling :
>= 8 km
>= 3000ft
5 to 8 km
1000 to 3000 ft
1500m to 5 km
500 to 1000 ft
800 to 1500m
200 to 500 ft
< 800m
< 200 ft
Symbols :   Thunderstorms  Fog  Heavy snow  Heavy precipitations  Wind > 20 kt
SIGMETs :     Misc.  Thunderstorms  Icing  Turbulence  Mountain Waves  Volcanic Ashes






- Airport Elevation : 458 ft


LFSI - St-Dizier

CURRENT METAR :
  • 160000Z AUTO VRB02KT 9999 SCT010 OVC026 09/08 Q1008

EXPIRED METARs :
  • 152330Z AUTO VRB03KT 9999 OVC026 08/08 Q1008
  • 152300Z AUTO 36003KT 8000 -DZ OVC021/// ///TCU 09/08 Q1008
  • 152230Z AUTO 13003KT 9999 OVC017/// ///TCU 09/08 Q1008
  • 152200Z AUTO 14003KT 9999 -RA BKN014/// BKN020/// OVC027/// ///TCU 09/08 Q1008
  • 152130Z AUTO 18003KT 4700 -RA BR FEW016 OVC023 09/08 Q1008

TAF TAF LFSI
Valid from the 15 at 21:00 until the 16 at 21:00 UTC


152000Z 1521/1621 14004KT 9999 -RA BKN032
BECMG 1607/1609 9999 NSW



MET'MAP, your aeronautical weather chart ! - Copyright ORBIFLY December 2007 - Disclaimer

ORBIFLY MET'MAP TEAM :

Programming & Development : Alexandra Zaïnal
Concept & original design : Baudouin d'Aumeries
Assistance for programming : Marc-Olivier Méhu
Technical & hardware support : Manuel Goepfert

Contact : metmap@orbifly.com




SOURCES & CREDITS :

   NOAA